Time;durP1;ratioP1;P1;durP2;ratioP2;P2;SDS_P1;SDS_P2;PMS_P1;PMS_P2;Temp;Humidity;BMP_temperature;BMP_pressure;BME280_temperature;BME280_humidity;BME280_pressure;Samples;Min_cycle;Max_cycle;Signal;HPM_P1;HPM_P2
2023/06/08 00:02:08;;;;;;;1.00;1.00;;;18.30;99.90;;;;;;5053179;28;20730;-64
2023/06/08 00:04:35;;;;;;;1.02;1.02;;;18.20;99.90;;;;;;5052635;28;20232;-64
2023/06/08 00:07:04;;;;;;;1.00;1.00;;;18.20;99.90;;;;;;5054088;28;20741;-63
2023/06/08 00:09:31;;;;;;;1.05;1.05;;;18.10;99.90;;;;;;5052459;28;20212;-64
2023/06/08 00:11:58;;;;;;;1.10;1.10;;;18.20;99.90;;;;;;5052909;28;20717;-64
2023/06/08 00:14:25;;;;;;;1.00;1.00;;;18.20;99.90;;;;;;5055658;28;20204;-65
2023/06/08 00:16:52;;;;;;;1.20;1.10;;;18.20;99.90;;;;;;5052168;28;20586;-63
2023/06/08 00:19:22;;;;;;;1.10;1.10;;;18.10;99.90;;;;;;5051120;28;20258;-64
2023/06/08 00:21:49;;;;;;;1.30;1.20;;;18.10;99.90;;;;;;5051456;28;20230;-63
2023/06/08 00:24:18;;;;;;;1.23;1.23;;;18.00;99.90;;;;;;5051325;28;20204;-64
2023/06/08 00:26:45;;;;;;;1.10;1.10;;;17.90;99.90;;;;;;5048641;28;20227;-64
2023/06/08 00:29:11;;;;;;;1.15;1.15;;;17.90;99.90;;;;;;5050408;28;20207;-63
2023/06/08 00:31:38;;;;;;;1.10;1.10;;;17.80;99.90;;;;;;5050137;28;20227;-64
2023/06/08 00:34:05;;;;;;;1.02;1.02;;;17.70;99.90;;;;;;5051594;28;20200;-63
2023/06/08 00:36:33;;;;;;;0.90;0.90;;;17.60;99.90;;;;;;5052203;28;20735;-64
2023/06/08 00:39:00;;;;;;;1.00;1.00;;;17.50;99.90;;;;;;5051552;28;20200;-64
2023/06/08 00:41:27;;;;;;;1.00;1.00;;;17.50;99.90;;;;;;5051417;28;20709;-64
2023/06/08 00:43:54;;;;;;;1.00;1.00;;;17.50;99.90;;;;;;5051893;28;20645;-64
2023/06/08 00:46:22;;;;;;;1.08;1.08;;;17.50;99.90;;;;;;5052054;28;20219;-64
2023/06/08 00:48:49;;;;;;;1.10;1.10;;;17.50;99.90;;;;;;5050952;28;20207;-64
2023/06/08 00:51:17;;;;;;;0.90;0.90;;;17.50;99.90;;;;;;5055519;28;20286;-64
2023/06/08 00:53:46;;;;;;;0.90;0.90;;;17.40;99.90;;;;;;5058562;28;20211;-64
2023/06/08 00:56:16;;;;;;;1.05;1.05;;;17.50;99.90;;;;;;5056116;28;20208;-64
2023/06/08 00:58:46;;;;;;;1.30;1.20;;;17.50;99.90;;;;;;5056047;28;20661;-64
2023/06/08 01:01:17;;;;;;;1.00;1.00;;;17.40;99.90;;;;;;5055194;28;20204;-64
2023/06/08 01:03:45;;;;;;;1.00;1.00;;;17.50;99.90;;;;;;5056006;28;20227;-64
2023/06/08 01:06:12;;;;;;;1.00;1.00;;;17.50;99.90;;;;;;5056908;28;20224;-64
2023/06/08 01:08:53;;;;;;;0.93;0.93;;;17.50;99.90;;;;;;5055698;28;20565;-65
2023/06/08 01:11:29;;;;;;;0.90;0.90;;;17.50;99.90;;;;;;5055204;28;20281;-64
2023/06/08 01:14:03;;;;;;;0.90;0.90;;;17.60;99.90;;;;;;5055410;28;20239;-62
2023/06/08 01:16:36;;;;;;;1.00;1.00;;;17.70;99.90;;;;;;5055135;28;20200;-64
2023/06/08 01:19:10;;;;;;;1.00;1.00;;;17.70;99.90;;;;;;5053835;28;20617;-64
2023/06/08 01:21:51;;;;;;;1.00;1.00;;;17.70;99.90;;;;;;5055434;28;20232;-63
2023/06/08 01:24:20;;;;;;;0.90;0.90;;;17.60;99.90;;;;;;5056510;28;20240;-65
2023/06/08 01:26:49;;;;;;;1.00;1.00;;;17.50;99.90;;;;;;5055383;28;20223;-64
2023/06/08 01:29:18;;;;;;;1.00;1.00;;;17.50;99.90;;;;;;5054143;28;20208;-64
2023/06/08 01:31:45;;;;;;;1.05;1.05;;;17.40;99.90;;;;;;5054049;28;20231;-64
2023/06/08 01:34:13;;;;;;;1.00;1.00;;;17.40;99.90;;;;;;5055149;28;20218;-64
2023/06/08 01:36:48;;;;;;;1.00;1.00;;;17.40;99.90;;;;;;5057747;28;20200;-64
2023/06/08 01:39:30;;;;;;;1.00;1.00;;;17.40;99.90;;;;;;5054698;28;20294;-64
2023/06/08 01:42:02;;;;;;;0.90;0.90;;;17.40;99.90;;;;;;5054936;28;20603;-64
2023/06/08 01:44:32;;;;;;;1.02;1.02;;;17.50;99.90;;;;;;5054896;28;20200;-65
2023/06/08 01:47:01;;;;;;;1.10;1.10;;;17.30;99.90;;;;;;5055158;28;20591;-64
2023/06/08 01:49:31;;;;;;;0.98;0.98;;;17.30;99.90;;;;;;5053761;28;20204;-65
2023/06/08 01:51:58;;;;;;;1.10;1.10;;;17.40;99.90;;;;;;5054014;28;20726;-64
2023/06/08 01:54:27;;;;;;;0.85;0.85;;;17.40;99.90;;;;;;5062166;28;20207;-63
2023/06/08 01:56:53;;;;;;;0.98;0.98;;;17.30;99.90;;;;;;5057256;28;20207;-64
2023/06/08 01:59:20;;;;;;;1.23;1.20;;;17.30;99.90;;;;;;5055046;28;20200;-65
2023/06/08 02:01:47;;;;;;;1.00;1.00;;;17.40;99.90;;;;;;5054056;28;20250;-63
2023/06/08 02:04:14;;;;;;;1.10;1.10;;;17.40;99.90;;;;;;5053775;28;20212;-64
2023/06/08 02:06:41;;;;;;;0.90;0.90;;;17.40;99.90;;;;;;5054098;28;20720;-64
2023/06/08 02:09:08;;;;;;;0.90;0.90;;;17.40;99.90;;;;;;5053924;28;20204;-64
2023/06/08 02:11:36;;;;;;;0.90;0.90;;;17.50;99.90;;;;;;5054078;28;20230;-64
2023/06/08 02:14:05;;;;;;;1.00;1.00;;;17.40;99.90;;;;;;5054264;28;20279;-65
2023/06/08 02:16:33;;;;;;;1.00;1.00;;;17.50;99.90;;;;;;5054084;28;20200;-65
2023/06/08 02:19:01;;;;;;;1.10;1.10;;;17.40;99.90;;;;;;5053984;28;20223;-64
2023/06/08 02:21:28;;;;;;;1.00;1.00;;;17.30;99.90;;;;;;5054022;28;20232;-65
2023/06/08 02:23:54;;;;;;;0.80;0.80;;;17.20;99.90;;;;;;5054753;28;20207;-64
2023/06/08 02:26:22;;;;;;;1.00;1.00;;;17.00;99.90;;;;;;5058656;28;20246;-65
2023/06/08 02:28:50;;;;;;;1.10;1.10;;;17.00;99.90;;;;;;5055022;28;20243;-63
2023/06/08 02:31:17;;;;;;;0.90;0.90;;;16.90;99.90;;;;;;5053525;28;20204;-63
2023/06/08 02:33:44;;;;;;;0.90;0.90;;;16.80;99.90;;;;;;5053844;28;20214;-65
2023/06/08 02:36:10;;;;;;;0.90;0.90;;;16.70;99.90;;;;;;5054091;28;20640;-63
2023/06/08 02:38:38;;;;;;;0.98;0.98;;;16.70;99.90;;;;;;5054755;28;20204;-64
2023/06/08 02:41:06;;;;;;;1.17;1.17;;;16.70;99.90;;;;;;5061718;28;20291;-65
2023/06/08 02:43:33;;;;;;;0.93;0.93;;;16.60;99.90;;;;;;5057084;28;20204;-64
2023/06/08 02:46:01;;;;;;;1.05;1.05;;;16.60;99.90;;;;;;5056121;28;20218;-64
2023/06/08 02:48:28;;;;;;;0.90;0.90;;;16.70;99.90;;;;;;5055710;28;20678;-65
2023/06/08 02:50:55;;;;;;;1.00;1.00;;;16.90;99.90;;;;;;5054873;28;20235;-64
2023/06/08 02:53:21;;;;;;;1.10;1.05;;;16.80;99.90;;;;;;5082588;22;20231;-64
2023/06/08 02:55:50;;;;;;;1.08;1.08;;;16.80;99.90;;;;;;5072926;28;20217;-64
2023/06/08 02:58:18;;;;;;;0.90;0.90;;;16.80;99.90;;;;;;5072811;28;20211;-64
2023/06/08 03:00:46;;;;;;;1.08;1.02;;;16.80;99.90;;;;;;5072342;28;20233;-63
2023/06/08 03:03:14;;;;;;;1.00;1.00;;;16.80;99.90;;;;;;5072451;28;20227;-64
2023/06/08 03:05:43;;;;;;;0.85;0.85;;;16.80;99.90;;;;;;5072813;28;20233;-65
2023/06/08 03:08:10;;;;;;;1.00;1.00;;;16.80;99.90;;;;;;5072356;28;20203;-66
2023/06/08 03:10:37;;;;;;;1.27;1.10;;;16.80;99.90;;;;;;5072050;28;20619;-63
2023/06/08 03:13:03;;;;;;;0.93;0.93;;;16.80;99.90;;;;;;5072562;28;20287;-63
2023/06/08 03:15:30;;;;;;;1.02;1.02;;;16.70;99.90;;;;;;5072388;28;20294;-65
2023/06/08 03:17:57;;;;;;;1.20;1.20;;;16.70;99.90;;;;;;5071890;28;20221;-65
2023/06/08 03:20:25;;;;;;;0.90;0.90;;;16.70;99.90;;;;;;5073953;28;20234;-65
2023/06/08 03:22:53;;;;;;;1.00;1.00;;;16.60;99.90;;;;;;5071857;28;20227;-63
2023/06/08 03:25:21;;;;;;;1.20;1.10;;;16.50;99.90;;;;;;5072622;28;20207;-63
2023/06/08 03:27:48;;;;;;;0.90;0.90;;;16.50;99.90;;;;;;5072860;28;20207;-63
2023/06/08 03:30:15;;;;;;;0.90;0.90;;;16.50;99.90;;;;;;5072705;28;20294;-64
2023/06/08 03:32:48;;;;;;;1.00;1.00;;;16.60;99.90;;;;;;5074550;28;20290;-64
2023/06/08 03:35:16;;;;;;;1.00;1.00;;;16.60;99.90;;;;;;5075120;28;20234;-65
2023/06/08 03:37:44;;;;;;;0.93;0.93;;;16.60;99.90;;;;;;5073887;28;20214;-65
2023/06/08 03:40:11;;;;;;;0.90;0.90;;;16.70;99.90;;;;;;5071641;28;20628;-63
2023/06/08 03:42:38;;;;;;;1.00;1.00;;;16.80;99.90;;;;;;5071778;28;20226;-63
2023/06/08 03:45:06;;;;;;;0.98;0.98;;;16.80;99.90;;;;;;5071934;28;20302;-64
2023/06/08 03:47:33;;;;;;;1.17;1.17;;;16.70;99.90;;;;;;5072618;28;20385;-63
2023/06/08 03:50:00;;;;;;;0.80;0.80;;;16.80;99.90;;;;;;5074094;28;20281;-64
2023/06/08 03:52:26;;;;;;;0.82;0.82;;;16.80;99.90;;;;;;5072384;28;20238;-67
2023/06/08 03:54:55;;;;;;;0.82;0.82;;;16.80;99.90;;;;;;5071680;28;20203;-64
2023/06/08 03:57:21;;;;;;;1.00;1.00;;;16.90;99.90;;;;;;5071501;28;20195;-64
2023/06/08 03:59:48;;;;;;;0.90;0.90;;;16.90;99.90;;;;;;5071882;28;20289;-63
2023/06/08 04:02:15;;;;;;;0.93;0.93;;;16.80;99.90;;;;;;5076963;28;20310;-64
2023/06/08 04:04:44;;;;;;;0.90;0.90;;;16.90;99.90;;;;;;5071211;28;20297;-65
2023/06/08 04:07:11;;;;;;;0.88;0.88;;;16.80;99.90;;;;;;5071551;28;20287;-63
2023/06/08 04:09:38;;;;;;;1.02;1.02;;;16.80;99.90;;;;;;5071528;28;20229;-63
2023/06/08 04:12:07;;;;;;;0.93;0.93;;;16.90;99.90;;;;;;5071771;28;20223;-65
2023/06/08 04:14:35;;;;;;;1.15;1.13;;;16.90;99.90;;;;;;5071823;28;20203;-63
2023/06/08 04:17:02;;;;;;;1.05;1.05;;;16.80;99.90;;;;;;5071503;28;20207;-63
2023/06/08 04:19:29;;;;;;;1.00;1.00;;;16.90;99.90;;;;;;5070671;28;20688;-63
2023/06/08 04:21:56;;;;;;;0.90;0.90;;;17.00;99.90;;;;;;5070962;28;20317;-64
2023/06/08 04:24:23;;;;;;;0.85;0.85;;;17.00;99.90;;;;;;5070752;28;20669;-63
2023/06/08 04:26:50;;;;;;;1.00;1.00;;;17.10;99.90;;;;;;5071078;28;20233;-64
2023/06/08 04:29:18;;;;;;;0.90;0.90;;;17.10;99.90;;;;;;5070719;28;20211;-65
2023/06/08 04:31:45;;;;;;;1.00;1.00;;;17.20;99.90;;;;;;5071035;28;20215;-64
2023/06/08 04:34:12;;;;;;;1.05;1.05;;;17.40;99.90;;;;;;5070406;28;20562;-63
2023/06/08 04:36:42;;;;;;;0.90;0.90;;;17.30;99.90;;;;;;5070818;28;20594;-63
2023/06/08 04:39:09;;;;;;;1.10;1.10;;;17.40;99.90;;;;;;5071073;28;20219;-63
2023/06/08 04:41:35;;;;;;;1.08;1.08;;;17.60;99.90;;;;;;5073707;28;20283;-64
2023/06/08 04:44:03;;;;;;;0.93;0.93;;;17.70;99.90;;;;;;5084905;28;20280;-64
2023/06/08 04:46:37;;;;;;;1.00;1.00;;;17.80;99.90;;;;;;5078096;28;20648;-64
2023/06/08 04:49:04;;;;;;;1.10;1.10;;;17.90;99.90;;;;;;5074541;28;20227;-63
2023/06/08 04:51:31;;;;;;;1.00;1.00;;;18.00;99.90;;;;;;5073379;28;20219;-64
2023/06/08 04:53:59;;;;;;;0.90;0.90;;;18.10;99.90;;;;;;5071962;28;20249;-64
2023/06/08 04:56:29;;;;;;;1.00;1.00;;;18.30;99.90;;;;;;5077727;28;20203;-64
2023/06/08 04:58:56;;;;;;;1.00;1.00;;;18.30;99.90;;;;;;5073018;28;20666;-64
2023/06/08 05:01:23;;;;;;;0.80;0.80;;;18.40;99.90;;;;;;5071002;28;20726;-65
2023/06/08 05:03:52;;;;;;;1.02;1.02;;;18.50;99.90;;;;;;5071145;28;20227;-64
2023/06/08 05:06:19;;;;;;;1.00;1.00;;;18.60;99.90;;;;;;5071404;28;20235;-64
2023/06/08 05:08:46;;;;;;;1.00;1.00;;;18.70;99.90;;;;;;5071598;28;20209;-64
2023/06/08 05:11:13;;;;;;;1.02;1.02;;;18.80;99.90;;;;;;5071904;28;20592;-64
2023/06/08 05:13:40;;;;;;;1.00;1.00;;;18.90;99.90;;;;;;5076854;28;20314;-64
2023/06/08 05:16:07;;;;;;;1.10;1.10;;;19.10;99.90;;;;;;5074105;28;20298;-64
2023/06/08 05:18:34;;;;;;;1.00;1.00;;;19.30;99.90;;;;;;5076873;28;20211;-65
2023/06/08 05:21:02;;;;;;;1.10;1.10;;;19.40;99.90;;;;;;5074304;28;20262;-64
2023/06/08 05:23:28;;;;;;;1.05;1.05;;;19.40;99.90;;;;;;5074240;28;20623;-63
2023/06/08 05:25:55;;;;;;;1.10;1.10;;;19.40;99.90;;;;;;5081926;28;20275;-63
2023/06/08 05:28:22;;;;;;;1.10;1.10;;;19.50;99.90;;;;;;5084946;28;20274;-65
2023/06/08 05:30:49;;;;;;;1.10;1.10;;;19.50;99.90;;;;;;5085704;28;20263;-64
2023/06/08 05:33:16;;;;;;;1.10;1.10;;;19.50;99.90;;;;;;5084571;28;20321;-65
2023/06/08 05:35:43;;;;;;;0.80;0.80;;;19.50;99.90;;;;;;5084686;28;20203;-63
2023/06/08 05:38:11;;;;;;;1.00;1.00;;;19.60;99.90;;;;;;5082240;28;20234;-64
2023/06/08 05:40:39;;;;;;;0.80;0.80;;;19.70;99.90;;;;;;5084444;28;20282;-65
2023/06/08 05:43:06;;;;;;;0.90;0.90;;;19.70;99.90;;;;;;5085146;28;20323;-64
2023/06/08 05:45:32;;;;;;;1.00;1.00;;;19.70;99.90;;;;;;5085702;28;20210;-63
2023/06/08 05:47:59;;;;;;;1.27;1.13;;;19.80;99.90;;;;;;5084296;28;20223;-64
2023/06/08 05:50:26;;;;;;;1.10;1.10;;;19.90;99.90;;;;;;5083298;28;20226;-65
2023/06/08 05:52:53;;;;;;;1.00;1.00;;;20.00;99.90;;;;;;5083191;28;20622;-66
2023/06/08 05:55:21;;;;;;;1.08;1.08;;;20.10;99.90;;;;;;5083201;28;20246;-65
2023/06/08 05:57:48;;;;;;;1.13;1.13;;;20.30;99.90;;;;;;5083964;28;20211;-64
2023/06/08 06:00:16;;;;;;;0.90;0.90;;;20.40;99.90;;;;;;5084448;28;20290;-63
2023/06/08 06:02:42;;;;;;;0.90;0.90;;;20.50;99.90;;;;;;5084669;28;20223;-66
2023/06/08 06:05:10;;;;;;;1.15;1.15;;;20.60;99.90;;;;;;5082283;28;20210;-64
2023/06/08 06:07:37;;;;;;;1.10;1.10;;;20.50;99.90;;;;;;5087793;28;20222;-65
2023/06/08 06:10:05;;;;;;;1.15;1.15;;;20.60;99.90;;;;;;5086027;28;20266;-64
2023/06/08 06:12:33;;;;;;;1.08;1.08;;;20.40;99.90;;;;;;5081810;28;20233;-63
2023/06/08 06:14:59;;;;;;;1.10;1.10;;;20.30;99.90;;;;;;5081473;28;20283;-65
2023/06/08 06:17:27;;;;;;;1.20;1.20;;;20.30;99.90;;;;;;5080173;28;20203;-63
2023/06/08 06:19:54;;;;;;;1.00;1.00;;;20.40;99.90;;;;;;5077550;28;20289;-63
2023/06/08 06:22:20;;;;;;;1.33;1.30;;;20.40;99.90;;;;;;5076394;28;20239;-65
2023/06/08 06:24:47;;;;;;;1.40;1.40;;;20.50;99.90;;;;;;5074779;28;20199;-63
2023/06/08 06:27:14;;;;;;;1.05;1.05;;;20.50;99.90;;;;;;5074251;28;20736;-64
2023/06/08 06:29:42;;;;;;;1.30;1.30;;;20.40;99.90;;;;;;5073523;28;20217;-63
2023/06/08 06:32:09;;;;;;;1.20;1.20;;;20.10;99.90;;;;;;5073639;28;20322;-64
2023/06/08 06:34:36;;;;;;;1.10;1.10;;;20.00;99.90;;;;;;5073603;28;20227;-64
2023/06/08 06:37:03;;;;;;;1.33;1.33;;;20.20;99.90;;;;;;5073502;28;20199;-63
2023/06/08 06:39:30;;;;;;;1.13;1.13;;;20.40;99.90;;;;;;5073201;28;20311;-63
2023/06/08 06:41:57;;;;;;;1.00;1.00;;;20.50;99.90;;;;;;5073816;28;20231;-64
2023/06/08 06:44:24;;;;;;;1.10;1.10;;;20.60;99.90;;;;;;5073528;28;20269;-65
2023/06/08 06:46:52;;;;;;;1.20;1.20;;;20.80;99.90;;;;;;5073636;28;20230;-66
2023/06/08 06:49:19;;;;;;;1.10;1.10;;;21.00;99.90;;;;;;5078837;28;20613;-64
2023/06/08 06:51:46;;;;;;;1.10;1.10;;;21.20;99.90;;;;;;5082380;28;20207;-66
2023/06/08 06:54:13;;;;;;;1.00;1.00;;;21.40;99.90;;;;;;5074666;28;20230;-63
2023/06/08 06:56:40;;;;;;;1.48;1.25;;;21.60;99.90;;;;;;5074036;28;20199;-64
2023/06/08 06:59:07;;;;;;;1.00;1.00;;;21.90;99.90;;;;;;5073575;28;20709;-65
2023/06/08 07:01:35;;;;;;;1.00;1.00;;;22.10;99.90;;;;;;5072138;28;20196;-66
2023/06/08 07:04:05;;;;;;;1.10;1.10;;;22.00;99.90;;;;;;5071863;28;20204;-66
2023/06/08 07:06:32;;;;;;;1.20;1.20;;;22.00;99.90;;;;;;5072151;28;20650;-64
2023/06/08 07:08:59;;;;;;;1.20;1.20;;;22.00;99.90;;;;;;5073450;28;20207;-64
2023/06/08 07:11:26;;;;;;;1.13;1.13;;;22.20;99.90;;;;;;5083203;28;20223;-65
2023/06/08 07:13:53;;;;;;;1.10;1.10;;;22.30;99.90;;;;;;5093196;28;20219;-64
2023/06/08 07:16:21;;;;;;;1.20;1.20;;;22.40;99.90;;;;;;5093170;28;20210;-65
2023/06/08 07:18:49;;;;;;;1.30;1.30;;;22.50;99.90;;;;;;5093658;28;20218;-65
2023/06/08 07:21:20;;;;;;;1.20;1.20;;;22.60;99.90;;;;;;5093037;28;20712;-63
2023/06/08 07:23:48;;;;;;;1.20;1.20;;;22.70;99.90;;;;;;5093344;28;20227;-64
2023/06/08 07:26:15;;;;;;;1.40;1.33;;;22.80;99.90;;;;;;5092822;28;20642;-65
2023/06/08 07:28:41;;;;;;;1.80;1.70;;;22.80;99.90;;;;;;5092617;28;20219;-64
2023/06/08 07:31:08;;;;;;;1.60;1.50;;;22.80;99.90;;;;;;5092430;28;20198;-65
2023/06/08 07:33:35;;;;;;;1.60;1.50;;;23.00;99.90;;;;;;5085948;28;20219;-65
2023/06/08 07:36:02;;;;;;;1.50;1.40;;;23.30;99.90;;;;;;5075908;28;20199;-65
2023/06/08 07:38:31;;;;;;;2.65;1.30;;;23.50;99.90;;;;;;5073485;28;20202;-66
2023/06/08 07:40:57;;;;;;;1.30;1.30;;;23.60;99.90;;;;;;5072745;28;20203;-65
2023/06/08 07:43:24;;;;;;;1.23;1.15;;;23.60;99.90;;;;;;5071778;28;20224;-65
2023/06/08 07:45:51;;;;;;;1.30;1.20;;;23.70;99.90;;;;;;5074096;28;20203;-64
2023/06/08 07:48:18;;;;;;;1.10;1.10;;;23.70;99.90;;;;;;5077944;28;20308;-65
2023/06/08 07:50:45;;;;;;;1.10;1.10;;;23.60;99.90;;;;;;5072018;28;20206;-65
2023/06/08 07:53:13;;;;;;;1.08;1.08;;;23.60;99.90;;;;;;5072235;28;20653;-65
2023/06/08 07:55:42;;;;;;;1.70;1.20;;;23.70;99.90;;;;;;5071893;28;20211;-65
2023/06/08 07:58:08;;;;;;;1.27;1.27;;;23.70;99.90;;;;;;5071583;28;20687;-65
2023/06/08 08:00:36;;;;;;;1.13;1.13;;;23.90;99.90;;;;;;5071302;28;20290;-64
2023/06/08 08:03:03;;;;;;;1.00;1.00;;;23.90;99.90;;;;;;5071369;28;20223;-65
2023/06/08 08:05:30;;;;;;;1.15;1.10;;;24.00;99.90;;;;;;5071251;28;20211;-65
2023/06/08 08:07:58;;;;;;;1.48;1.38;;;24.10;99.90;;;;;;5072175;28;20532;-65
2023/06/08 08:10:25;;;;;;;1.10;1.10;;;24.20;99.90;;;;;;5071867;28;20203;-64
2023/06/08 08:12:53;;;;;;;1.38;1.30;;;24.10;99.90;;;;;;5073481;28;20306;-64
2023/06/08 08:15:21;;;;;;;3.05;1.35;;;24.20;99.90;;;;;;5074802;28;20211;-64
2023/06/08 08:17:49;;;;;;;2.28;1.20;;;23.90;99.90;;;;;;5071696;28;20206;-65
2023/06/08 08:20:15;;;;;;;1.02;1.02;;;24.00;99.90;;;;;;5071053;28;20235;-65
2023/06/08 08:22:42;;;;;;;1.20;1.10;;;24.20;99.90;;;;;;5079559;28;20229;-64
2023/06/08 08:25:09;;;;;;;1.10;1.10;;;24.40;99.90;;;;;;5082431;28;20207;-65
2023/06/08 08:27:36;;;;;;;1.40;1.30;;;24.60;99.90;;;;;;5072770;28;20219;-64
2023/06/08 08:30:05;;;;;;;1.30;1.30;;;24.80;99.90;;;;;;5072214;28;20204;-65
2023/06/08 08:32:32;;;;;;;1.00;1.00;;;24.80;99.90;;;;;;5072423;28;20223;-64
2023/06/08 08:34:59;;;;;;;1.30;1.30;;;24.90;99.90;;;;;;5077157;28;20207;-65
2023/06/08 08:37:26;;;;;;;1.20;1.10;;;24.90;99.90;;;;;;5072165;28;20199;-66
2023/06/08 08:39:53;;;;;;;1.10;1.10;;;24.90;99.90;;;;;;5072077;28;20319;-64
2023/06/08 08:42:23;;;;;;;1.20;1.20;;;24.90;99.90;;;;;;5077772;28;20239;-64
2023/06/08 08:44:54;;;;;;;1.20;1.20;;;25.10;99.90;;;;;;5070930;28;20286;-65
2023/06/08 08:47:26;;;;;;;1.20;1.20;;;25.20;99.90;;;;;;5072609;28;20235;-64
2023/06/08 08:50:03;;;;;;;1.10;1.10;;;25.20;99.90;;;;;;5074695;28;20286;-66
2023/06/08 08:52:33;;;;;;;1.20;1.20;;;25.40;99.90;;;;;;5089248;22;20250;-62
2023/06/08 08:55:01;;;;;;;1.10;1.10;;;25.40;99.90;;;;;;5028571;28;20254;-63
2023/06/08 08:57:29;;;;;;;1.17;1.17;;;25.50;99.90;;;;;;5031779;28;20203;-63
2023/06/08 08:59:56;;;;;;;1.30;1.20;;;25.30;99.90;;;;;;5031345;28;20212;-63
2023/06/08 09:02:25;;;;;;;1.27;1.20;;;25.50;99.90;;;;;;5031282;28;20215;-65
2023/06/08 09:04:53;;;;;;;1.10;1.10;;;25.60;99.90;;;;;;5031785;28;20234;-63
2023/06/08 09:07:21;;;;;;;1.00;1.00;;;25.70;99.90;;;;;;5032087;28;20224;-64
2023/06/08 09:10:13;;;;;;;1.33;1.30;;;25.50;99.90;;;;;;5031779;28;20207;-63
2023/06/08 09:12:40;;;;;;;1.20;1.20;;;25.40;99.90;;;;;;5031645;28;20229;-64
2023/06/08 09:15:09;;;;;;;1.02;1.02;;;25.40;99.90;;;;;;5033192;28;20208;-64
2023/06/08 09:17:38;;;;;;;1.10;1.10;;;25.40;99.90;;;;;;5034997;28;20287;-64
2023/06/08 09:20:08;;;;;;;1.45;1.35;;;25.50;99.90;;;;;;5034719;28;20208;-64
2023/06/08 09:25:57;;;;;;;1.00;1.00;;;25.80;99.90;;;;;;5034706;28;20207;-62
2023/06/08 09:28:25;;;;;;;1.08;1.08;;;26.30;99.90;;;;;;5034710;28;20230;-64
2023/06/08 09:30:53;;;;;;;1.00;1.00;;;26.40;99.90;;;;;;5034819;28;20689;-63
2023/06/08 09:33:25;;;;;;;1.10;1.10;;;26.40;99.90;;;;;;5034792;28;20231;-63
2023/06/08 09:36:08;;;;;;;1.13;1.13;;;26.60;99.90;;;;;;5034296;28;20240;-63
2023/06/08 09:38:35;;;;;;;1.10;1.10;;;26.90;99.90;;;;;;5034170;28;20204;-64
2023/06/08 09:41:16;;;;;;;1.15;1.15;;;27.00;99.90;;;;;;5034525;28;20254;-64
2023/06/08 09:43:44;;;;;;;1.52;1.00;;;27.20;99.90;;;;;;5034319;28;20228;-63
2023/06/08 09:46:15;;;;;;;0.90;0.90;;;27.30;99.90;;;;;;5034518;28;20679;-64
2023/06/08 09:48:53;;;;;;;1.63;1.10;;;27.40;99.90;;;;;;5034648;28;20248;-63
2023/06/08 09:51:22;;;;;;;1.00;1.00;;;27.50;99.90;;;;;;5034615;28;20259;-63
2023/06/08 09:53:53;;;;;;;0.80;0.80;;;27.40;99.90;;;;;;5034276;28;20286;-63
2023/06/08 09:56:22;;;;;;;1.17;1.17;;;27.50;99.90;;;;;;5034528;28;20295;-65
2023/06/08 09:58:51;;;;;;;1.33;1.00;;;27.80;99.90;;;;;;5034417;28;20251;-63
2023/06/08 10:01:21;;;;;;;1.00;1.00;;;28.00;99.90;;;;;;5034373;28;20208;-64
2023/06/08 10:03:53;;;;;;;0.98;0.98;;;27.90;99.90;;;;;;5034617;28;20291;-63
2023/06/08 10:06:22;;;;;;;0.90;0.90;;;27.80;99.90;;;;;;5034715;28;20240;-64
2023/06/08 10:08:52;;;;;;;0.90;0.90;;;28.00;99.90;;;;;;5034317;28;20259;-64
2023/06/08 10:11:20;;;;;;;0.90;0.90;;;28.00;99.90;;;;;;5034178;28;20308;-63
2023/06/08 10:13:47;;;;;;;1.00;1.00;;;28.10;99.90;;;;;;5034282;28;20224;-63
2023/06/08 10:16:14;;;;;;;1.00;1.00;;;28.10;99.90;;;;;;5034235;28;20251;-63
2023/06/08 10:18:42;;;;;;;1.00;1.00;;;28.30;99.90;;;;;;5034584;28;20228;-64
2023/06/08 10:21:11;;;;;;;0.95;0.95;;;28.50;99.90;;;;;;5033821;28;20240;-63
2023/06/08 10:23:40;;;;;;;0.95;0.95;;;28.60;99.90;;;;;;5033936;28;20232;-64
2023/06/08 10:26:08;;;;;;;0.90;0.90;;;28.60;99.90;;;;;;5033919;28;20208;-64
2023/06/08 10:28:35;;;;;;;0.88;0.88;;;28.50;99.90;;;;;;5033853;28;20278;-64
2023/06/08 10:31:31;;;;;;;1.02;1.02;;;28.50;99.90;;;;;;5033722;28;20201;-64
2023/06/08 10:33:59;;;;;;;1.00;1.00;;;28.70;99.90;;;;;;5034236;28;20278;-63
2023/06/08 10:36:39;;;;;;;1.10;1.10;;;28.80;99.90;;;;;;5033978;28;20671;-62
2023/06/08 10:39:10;;;;;;;1.00;1.00;;;28.80;99.90;;;;;;5033813;28;20231;-63
2023/06/08 10:41:41;;;;;;;1.02;1.02;;;29.00;99.90;;;;;;5034088;28;20205;-64
2023/06/08 10:44:25;;;;;;;1.00;1.00;;;29.20;99.90;;;;;;5033518;28;20235;-63
2023/06/08 10:46:59;;;;;;;1.10;1.05;;;29.40;99.90;;;;;;5033827;28;20250;-64
2023/06/08 10:49:29;;;;;;;1.10;1.10;;;29.20;99.90;;;;;;5033098;28;20273;-64
2023/06/08 10:51:58;;;;;;;1.10;1.10;;;28.90;99.90;;;;;;5033906;28;20585;-63
2023/06/08 10:54:26;;;;;;;4.63;1.55;;;28.80;99.90;;;;;;5033537;28;20228;-63
2023/06/08 10:56:56;;;;;;;2.92;1.77;;;28.60;99.90;;;;;;5033465;28;20588;-63
2023/06/08 10:59:29;;;;;;;1.70;1.60;;;28.10;99.90;;;;;;5033239;28;20686;-63
2023/06/08 11:01:57;;;;;;;1.58;1.48;;;27.80;99.90;;;;;;5033320;28;20212;-68
2023/06/08 11:04:28;;;;;;;1.67;1.58;;;27.80;99.90;;;;;;5033227;28;20221;-63
2023/06/08 11:06:55;;;;;;;1.63;1.52;;;27.80;99.90;;;;;;5033536;28;20232;-62
2023/06/08 11:09:23;;;;;;;2.95;1.50;;;27.60;99.90;;;;;;5033596;28;20271;-62
2023/06/08 11:11:51;;;;;;;1.60;1.50;;;27.10;99.90;;;;;;5033526;28;20287;-64
2023/06/08 11:14:20;;;;;;;2.72;1.35;;;26.70;99.90;;;;;;5033388;28;20660;-63
2023/06/08 11:16:50;;;;;;;1.23;1.23;;;26.40;99.90;;;;;;5033435;28;20212;-64
2023/06/08 11:19:18;;;;;;;1.10;1.10;;;26.40;99.90;;;;;;5033546;28;20211;-63
2023/06/08 11:21:45;;;;;;;1.40;1.30;;;26.30;99.90;;;;;;5033487;28;20280;-63
2023/06/08 11:24:14;;;;;;;1.20;1.20;;;26.40;99.90;;;;;;5033731;28;20228;-63
2023/06/08 11:26:43;;;;;;;1.60;1.20;;;26.60;99.90;;;;;;5032480;28;20295;-63
2023/06/08 11:29:10;;;;;;;1.73;1.63;;;27.00;99.90;;;;;;5032500;28;20220;-63
2023/06/08 11:31:40;;;;;;;2.03;1.52;;;27.20;99.90;;;;;;5033189;28;20209;-63
2023/06/08 11:34:07;;;;;;;2.00;1.70;;;27.10;99.90;;;;;;5032559;28;20260;-64
2023/06/08 11:36:36;;;;;;;1.70;1.60;;;26.90;99.90;;;;;;5032444;28;20262;-64
2023/06/08 11:39:03;;;;;;;1.50;1.40;;;26.70;99.90;;;;;;5031835;28;20201;-65
2023/06/08 11:41:30;;;;;;;1.45;1.38;;;26.80;99.90;;;;;;5031431;28;20219;-63
2023/06/08 11:43:59;;;;;;;1.20;1.20;;;26.80;99.90;;;;;;5032842;28;20266;-63
2023/06/08 11:46:28;;;;;;;1.50;1.40;;;26.80;99.90;;;;;;5033277;28;20212;-63
2023/06/08 11:49:06;;;;;;;1.45;1.35;;;26.80;99.90;;;;;;5033629;28;20231;-64
2023/06/08 11:51:33;;;;;;;1.35;1.33;;;26.80;99.90;;;;;;5032889;28;20216;-62
2023/06/08 11:54:02;;;;;;;1.52;1.42;;;26.70;99.90;;;;;;5032715;28;20324;-62
2023/06/08 11:56:35;;;;;;;1.20;1.20;;;26.50;99.90;;;;;;5032782;28;20254;-62
2023/06/08 11:59:04;;;;;;;1.52;1.42;;;26.40;99.90;;;;;;5032553;28;20293;-62
2023/06/08 12:01:31;;;;;;;1.40;1.40;;;26.40;99.90;;;;;;5032328;28;20213;-63
2023/06/08 12:03:58;;;;;;;1.63;1.52;;;26.50;99.90;;;;;;5032025;28;20292;-62
2023/06/08 12:06:27;;;;;;;1.50;1.40;;;26.60;99.90;;;;;;5031955;28;20251;-62
2023/06/08 12:08:54;;;;;;;1.55;1.45;;;26.60;99.90;;;;;;5031570;28;20244;-62
2023/06/08 12:11:21;;;;;;;1.40;1.30;;;26.50;99.90;;;;;;5031728;28;20212;-62
2023/06/08 12:13:48;;;;;;;1.20;1.20;;;26.80;99.90;;;;;;5031787;28;20239;-62
2023/06/08 12:16:17;;;;;;;1.25;1.25;;;26.80;99.90;;;;;;5031975;28;20693;-62
2023/06/08 12:18:45;;;;;;;1.10;1.10;;;27.00;99.90;;;;;;5032030;28;20219;-62
2023/06/08 12:21:15;;;;;;;1.10;1.10;;;27.10;99.90;;;;;;5031537;28;20211;-63
2023/06/08 12:23:43;;;;;;;1.27;1.27;;;27.00;99.90;;;;;;5032095;28;20235;-63
2023/06/08 12:26:10;;;;;;;1.10;1.10;;;26.90;99.90;;;;;;5032262;28;20208;-63
2023/06/08 12:28:37;;;;;;;1.10;1.10;;;26.80;99.90;;;;;;5032097;28;20830;-63
2023/06/08 12:31:04;;;;;;;1.00;1.00;;;26.80;99.90;;;;;;5032324;28;20208;-62
2023/06/08 12:33:32;;;;;;;1.10;1.10;;;26.90;99.90;;;;;;5031352;28;20231;-63
2023/06/08 12:35:59;;;;;;;1.10;1.10;;;27.10;99.90;;;;;;5028815;28;20705;-62
2023/06/08 12:38:26;;;;;;;1.10;1.10;;;27.20;99.90;;;;;;5031402;28;20201;-63
2023/06/08 12:40:56;;;;;;;1.20;1.20;;;27.30;99.90;;;;;;5036255;28;20220;-63
2023/06/08 12:43:23;;;;;;;1.10;1.10;;;27.60;99.90;;;;;;5036256;28;20229;-63
2023/06/08 12:45:50;;;;;;;1.10;1.10;;;27.90;99.90;;;;;;5031893;28;20315;-62
2023/06/08 12:48:17;;;;;;;1.15;1.15;;;28.00;99.90;;;;;;5031841;28;20300;-63
2023/06/08 12:50:45;;;;;;;1.00;1.00;;;27.90;99.90;;;;;;5035553;28;20204;-63
2023/06/08 12:53:12;;;;;;;1.10;1.10;;;27.70;99.90;;;;;;5035548;28;20236;-62
2023/06/08 12:55:39;;;;;;;1.00;1.00;;;27.60;99.90;;;;;;5035543;28;20205;-63
2023/06/08 12:58:06;;;;;;;1.00;1.00;;;27.50;99.90;;;;;;5035563;28;20681;-63